SBOSBO VIE / LOWW
Speedbird OnlineSpeedbird Online VIE / LOWW

Vienna International Airport
10:13 17.4°C

Location Vienna, Austria
Latitude: 48.110298156738
Longitude: 16.569700241089
Web Airport Website | Wikipedia
Altitude 183 Meter / 600 Feet
Distance 1,236 KM / 768 Miles
from London.
Time Zone UTC +2 hours (Europe/Vienna)
Codes IATA: VIE
ICAO: LOWW
Currency £1 equals EUR 1.15
Runways
RunwayLength (m)Surface
113500Asphalt
163600Asphalt
293500Asphalt
343600Asphalt
Radio
TypeDescriptionFrequency
APPWIEN RADAR134.675
ATISATIS121.73
CLDWIEN CLNC DEL122.125
DIRDIRECTOR119.8
GNDWIEN GND121.6
INFOINFO118.525
RMPVIENNA ICE131.625
TWRWIEN TWR119.4
Live ATC
METAR LOWW 060750Z 12003KT 070V180 CAVOK 14/10 Q1029 BECMG 31008KT
TAF TAF LOWW 060515Z 0606/0712 17006KT CAVOK TX22/0614Z TN09/0606Z TEMPO 0606/0607 1200 BCFG TEMPO 0610/0615 34007KT BECMG 0622/0701 0500 FG BKN002 TEMPO 0701/0706 0200 VV001 BECMG 0707/0709 CAVOK BECMG 0708/0710 16010KT
Weather As Of 06 Oct 2022 10:13
Description Clear sky
Wind 6 km/h from South-East (120°)
Cloud Cover 0%
Precipitation Rain: none, Snow: none
Sunrise 06:59
Sunset 18:24
Lounges Vienna lounge, 2
Sky Lounge , Terminal 3
Air Lounge TEMPORARILY CLOSED, Terminal 3
Rotations During the last 90 days there were
243 flights from LHR
1 flights from KGS
1 flights from NBO
244 flights to LHR
1 flights to LGW


© 2017-2022 Speedbird Online